Time;durP1;ratioP1;P1;durP2;ratioP2;P2;SDS_P1;SDS_P2;PMS_P1;PMS_P2;Temp;Humidity;BMP_temperature;BMP_pressure;BME280_temperature;BME280_humidity;BME280_pressure;Samples;Min_cycle;Max_cycle;Signal;HPM_P1;HPM_P2
2022/06/25 00:01:50;;;;;;;16.00;11.50;;;18.50;99.90;;;;;;5076654;28;20219;-84
2022/06/25 00:07:00;;;;;;;16.47;11.60;;;18.50;99.90;;;;;;5081124;28;20227;-83
2022/06/25 00:09:26;;;;;;;19.70;11.97;;;18.50;99.90;;;;;;5077128;28;20202;-84
2022/06/25 00:14:37;;;;;;;15.03;10.93;;;18.60;99.90;;;;;;5079371;28;20175;-85
2022/06/25 00:17:02;;;;;;;18.57;11.97;;;18.40;99.90;;;;;;5079158;28;20637;-85
2022/06/25 00:19:28;;;;;;;15.07;12.07;;;18.20;99.90;;;;;;5077609;28;20241;-83
2022/06/25 00:21:54;;;;;;;15.77;11.63;;;18.20;99.90;;;;;;5077357;28;20192;-83
2022/06/25 00:24:20;;;;;;;14.10;11.70;;;18.30;99.90;;;;;;5077770;28;20161;-82
2022/06/25 00:26:45;;;;;;;16.73;11.97;;;18.20;99.90;;;;;;5077934;28;20235;-83
2022/06/25 00:29:11;;;;;;;16.47;11.27;;;18.10;99.90;;;;;;5077678;28;20183;-83
2022/06/25 00:31:37;;;;;;;12.87;11.20;;;18.10;99.90;;;;;;5077645;28;20187;-83
2022/06/25 00:34:03;;;;;;;15.40;11.67;;;18.20;99.90;;;;;;5076740;28;20667;-83
2022/06/25 00:36:29;;;;;;;18.23;12.60;;;18.20;99.90;;;;;;5076725;28;20560;-82
2022/06/25 00:38:55;;;;;;;18.37;11.93;;;18.10;99.90;;;;;;5076353;28;20193;-83
2022/06/25 00:41:21;;;;;;;14.43;11.73;;;18.10;99.90;;;;;;5076429;28;20183;-83
2022/06/25 00:43:50;;;;;;;13.50;10.90;;;18.00;99.90;;;;;;5076675;28;20200;-83
2022/06/25 00:46:15;;;;;;;18.70;11.17;;;18.00;99.90;;;;;;5076313;28;20180;-83
2022/06/25 00:48:41;;;;;;;13.87;10.30;;;17.90;99.90;;;;;;5076644;28;20176;-83
2022/06/25 00:51:13;;;;;;;13.30;10.40;;;18.00;99.90;;;;;;5076256;28;20295;-83
2022/06/25 00:53:44;;;;;;;10.97;8.90;;;17.90;99.90;;;;;;5076683;28;20197;-83
2022/06/25 00:56:11;;;;;;;13.50;9.30;;;17.90;99.90;;;;;;5076288;28;20188;-83
2022/06/25 00:58:43;;;;;;;11.43;7.73;;;17.90;99.90;;;;;;5076603;28;20458;-83
2022/06/25 01:01:09;;;;;;;9.57;7.73;;;18.00;99.90;;;;;;5076157;28;20173;-83
2022/06/25 01:03:36;;;;;;;7.97;6.97;;;18.00;99.90;;;;;;5076159;28;20268;-83
2022/06/25 01:06:06;;;;;;;13.10;7.03;;;18.10;99.90;;;;;;5075820;28;20196;-84
2022/06/25 01:08:33;;;;;;;11.40;7.00;;;18.10;99.90;;;;;;5075685;28;20176;-83
2022/06/25 01:10:59;;;;;;;8.77;6.13;;;18.20;99.90;;;;;;5078389;28;20180;-84
2022/06/25 01:13:25;;;;;;;9.27;6.47;;;18.20;99.90;;;;;;5078410;28;20301;-83
2022/06/25 01:15:51;;;;;;;8.17;6.13;;;18.10;99.90;;;;;;5079004;28;20179;-83
2022/06/25 01:18:17;;;;;;;12.57;5.83;;;18.00;99.90;;;;;;5077989;28;20263;-83
2022/06/25 01:20:43;;;;;;;8.43;6.00;;;18.10;99.90;;;;;;5077896;28;20187;-84
2022/06/25 01:23:10;;;;;;;10.93;5.50;;;18.00;99.90;;;;;;5077809;28;20227;-83
2022/06/25 01:25:36;;;;;;;13.03;5.60;;;18.10;99.90;;;;;;5078292;28;20169;-84
2022/06/25 01:28:03;;;;;;;14.10;5.27;;;18.10;99.90;;;;;;5078315;28;20168;-83
2022/06/25 01:30:29;;;;;;;7.23;5.50;;;18.10;99.90;;;;;;5078263;28;20176;-83
2022/06/25 01:32:55;;;;;;;7.60;5.77;;;18.10;99.90;;;;;;5077261;28;20219;-83
2022/06/25 01:35:21;;;;;;;9.97;5.40;;;18.20;99.90;;;;;;5078186;28;20177;-82
2022/06/25 01:37:47;;;;;;;9.27;5.67;;;17.90;99.90;;;;;;5077601;28;20264;-83
2022/06/25 01:40:12;;;;;;;13.93;5.27;;;17.90;99.90;;;;;;5077786;28;20210;-83
2022/06/25 01:45:22;;;;;;;13.20;5.73;;;17.90;99.90;;;;;;5078687;28;20552;-83
2022/06/25 01:47:48;;;;;;;7.67;5.73;;;17.90;99.90;;;;;;5077945;28;20208;-83
2022/06/25 01:50:14;;;;;;;8.07;5.50;;;17.90;99.90;;;;;;5078395;28;20629;-83
2022/06/25 01:52:40;;;;;;;9.43;5.37;;;17.90;99.90;;;;;;5077930;28;20203;-83
2022/06/25 01:55:07;;;;;;;9.90;6.20;;;17.80;99.90;;;;;;5077621;28;20755;-83
2022/06/25 01:57:33;;;;;;;8.77;5.93;;;17.80;99.90;;;;;;5077517;28;20212;-83
2022/06/25 01:59:58;;;;;;;10.77;6.07;;;17.70;99.90;;;;;;5077805;28;20230;-83
2022/06/25 02:02:24;;;;;;;8.00;5.40;;;17.70;99.90;;;;;;5077218;28;20312;-83
2022/06/25 02:04:50;;;;;;;6.10;5.50;;;17.80;99.90;;;;;;5077204;28;20176;-83
2022/06/25 02:07:15;;;;;;;10.83;5.63;;;17.80;99.90;;;;;;5077352;28;20177;-83
2022/06/25 02:09:41;;;;;;;9.63;5.47;;;17.80;99.90;;;;;;5077550;28;20177;-83
2022/06/25 02:12:07;;;;;;;10.20;5.30;;;17.70;99.90;;;;;;5077265;28;20210;-83
2022/06/25 02:14:33;;;;;;;6.87;5.13;;;17.70;99.90;;;;;;5077679;28;20177;-83
2022/06/25 02:16:58;;;;;;;8.73;5.40;;;17.70;99.90;;;;;;5077765;28;20234;-83
2022/06/25 02:19:24;;;;;;;10.90;5.93;;;17.70;99.90;;;;;;5077011;28;20236;-83
2022/06/25 02:21:50;;;;;;;11.73;5.60;;;17.70;99.90;;;;;;5077688;28;20184;-83
2022/06/25 02:24:15;;;;;;;9.73;6.00;;;17.70;99.90;;;;;;5077742;28;20168;-84
2022/06/25 02:26:41;;;;;;;6.53;5.40;;;17.70;99.90;;;;;;5077816;28;20169;-82
2022/06/25 02:29:07;;;;;;;14.73;5.50;;;17.70;99.90;;;;;;5078584;28;20184;-83
2022/06/25 02:31:32;;;;;;;8.40;5.47;;;17.70;99.90;;;;;;5078192;28;20181;-83
2022/06/25 02:33:58;;;;;;;6.97;5.77;;;17.60;99.90;;;;;;5080787;28;20200;-83
2022/06/25 02:36:24;;;;;;;7.20;5.60;;;17.60;99.90;;;;;;5081713;28;20192;-83
2022/06/25 02:38:49;;;;;;;11.77;4.97;;;17.60;99.90;;;;;;5080419;28;20200;-83
2022/06/25 02:41:16;;;;;;;8.50;5.30;;;17.50;99.90;;;;;;5080934;28;20191;-83
2022/06/25 02:43:42;;;;;;;10.40;5.53;;;17.60;99.90;;;;;;5080716;28;20192;-83
2022/06/25 02:46:07;;;;;;;12.47;5.37;;;17.50;99.90;;;;;;5080195;28;20268;-82
2022/06/25 02:48:33;;;;;;;12.60;5.47;;;17.50;99.90;;;;;;5080658;28;20172;-82
2022/06/25 02:50:59;;;;;;;8.93;5.00;;;17.50;99.90;;;;;;5081061;28;20541;-83
2022/06/25 02:53:25;;;;;;;7.90;4.90;;;17.50;99.90;;;;;;5080025;28;20730;-83
2022/06/25 03:01:19;;;;;;;7.83;4.97;;;17.40;99.90;;;;;;5081547;28;20188;-82
2022/06/25 03:03:45;;;;;;;6.87;4.90;;;17.40;99.90;;;;;;5079934;28;20189;-82
2022/06/25 03:06:11;;;;;;;6.67;5.03;;;17.40;99.90;;;;;;5081324;28;20276;-83
2022/06/25 03:08:37;;;;;;;6.87;4.40;;;17.30;99.90;;;;;;5081035;28;20215;-83
2022/06/25 03:11:02;;;;;;;9.67;4.50;;;17.30;99.90;;;;;;5080529;28;20546;-82
2022/06/25 03:13:31;;;;;;;8.90;5.03;;;17.30;99.90;;;;;;5080561;28;20265;-82
2022/06/25 03:15:57;;;;;;;8.63;4.90;;;17.30;99.90;;;;;;5080315;28;20173;-83
2022/06/25 03:18:23;;;;;;;8.63;4.00;;;17.40;99.90;;;;;;5080150;28;20177;-83
2022/06/25 03:20:50;;;;;;;8.30;4.37;;;17.30;99.90;;;;;;5080391;28;20218;-83
2022/06/25 03:23:16;;;;;;;6.23;4.10;;;17.30;99.90;;;;;;5079681;28;20197;-82
2022/06/25 03:25:42;;;;;;;8.87;4.40;;;17.30;99.90;;;;;;5079878;28;20176;-83
2022/06/25 03:28:07;;;;;;;10.37;4.37;;;17.30;99.90;;;;;;5079768;28;20598;-83
2022/06/25 03:30:33;;;;;;;6.77;4.30;;;17.30;99.90;;;;;;5080136;28;20230;-83
2022/06/25 03:32:59;;;;;;;7.50;3.87;;;17.30;99.90;;;;;;5078623;28;20189;-83
2022/06/25 03:35:24;;;;;;;10.87;4.30;;;17.30;99.90;;;;;;5079537;28;20176;-82
2022/06/25 03:37:50;;;;;;;9.67;4.33;;;17.20;99.90;;;;;;5078772;28;20649;-83
2022/06/25 03:40:17;;;;;;;7.87;3.60;;;17.30;99.90;;;;;;5079039;28;20249;-82
2022/06/25 03:42:43;;;;;;;10.93;4.00;;;17.30;99.90;;;;;;5078579;28;20193;-82
2022/06/25 03:45:10;;;;;;;6.90;3.80;;;17.30;99.90;;;;;;5079715;28;20639;-82
2022/06/25 03:47:35;;;;;;;5.27;3.73;;;17.30;99.90;;;;;;5079534;28;20179;-83
2022/06/25 03:50:01;;;;;;;6.43;3.90;;;17.40;99.90;;;;;;5079863;28;20173;-84
2022/06/25 03:52:27;;;;;;;4.40;3.60;;;17.30;99.90;;;;;;5079849;28;20303;-85
2022/06/25 03:54:53;;;;;;;10.70;3.83;;;17.30;99.90;;;;;;5079397;28;20207;-84
2022/06/25 03:57:18;;;;;;;10.90;4.10;;;17.30;99.90;;;;;;5079089;28;20629;-84
2022/06/25 03:59:44;;;;;;;7.23;3.70;;;17.20;99.90;;;;;;5079575;28;20287;-84
2022/06/25 04:02:09;;;;;;;6.33;3.63;;;17.30;99.90;;;;;;5078665;28;20192;-85
2022/06/25 04:04:35;;;;;;;10.53;3.63;;;17.40;99.90;;;;;;5079084;28;20169;-84
2022/06/25 04:07:01;;;;;;;10.63;3.87;;;17.40;99.90;;;;;;5078019;28;20168;-85
2022/06/25 04:09:26;;;;;;;11.27;4.37;;;17.40;99.90;;;;;;5078726;28;20459;-85
2022/06/25 04:11:52;;;;;;;7.13;3.57;;;17.40;99.90;;;;;;5078283;28;20551;-85
2022/06/25 04:14:18;;;;;;;6.07;3.80;;;17.40;99.90;;;;;;5078967;28;20680;-85
2022/06/25 04:16:44;;;;;;;6.63;3.63;;;17.50;99.90;;;;;;5078799;28;20176;-84
2022/06/25 04:19:10;;;;;;;10.80;3.80;;;17.60;99.90;;;;;;5078435;28;20231;-84
2022/06/25 04:21:35;;;;;;;5.73;3.43;;;17.60;99.90;;;;;;5078309;28;20164;-84
2022/06/25 04:24:01;;;;;;;7.33;3.50;;;17.70;99.90;;;;;;5078964;28;20173;-84
2022/06/25 04:26:27;;;;;;;8.30;3.73;;;17.70;99.90;;;;;;5079051;28;20177;-84
2022/06/25 04:29:04;;;;;;;7.97;3.50;;;17.80;99.90;;;;;;5078499;28;20177;-84
2022/06/25 04:31:31;;;;;;;9.37;3.37;;;18.00;99.90;;;;;;5078877;28;20538;-83
2022/06/25 04:33:58;;;;;;;11.47;3.60;;;18.30;99.90;;;;;;5078434;28;20695;-84
2022/06/25 04:36:24;;;;;;;7.47;3.17;;;18.50;99.90;;;;;;5078840;28;20279;-84
2022/06/25 04:38:50;;;;;;;6.57;2.70;;;18.90;99.90;;;;;;5078407;28;20227;-84
2022/06/25 04:41:17;;;;;;;6.50;2.43;;;18.90;99.90;;;;;;5077766;28;20172;-85
2022/06/25 04:43:43;;;;;;;7.30;2.70;;;19.30;99.90;;;;;;5077988;28;20560;-85
2022/06/25 04:46:09;;;;;;;7.07;2.50;;;19.70;99.90;;;;;;5077610;28;20173;-84
2022/06/25 04:48:34;;;;;;;5.88;2.72;;;19.80;99.90;;;;;;5077711;28;20165;-84
2022/06/25 04:51:00;;;;;;;9.85;2.60;;;19.90;99.90;;;;;;5079346;28;20179;-84
2022/06/25 04:53:26;;;;;;;6.90;2.50;;;19.90;99.90;;;;;;5078726;28;20185;-85
2022/06/25 04:55:52;;;;;;;5.10;2.10;;;20.10;99.90;;;;;;5078048;28;20222;-83
2022/06/25 04:58:18;;;;;;;4.45;2.30;;;20.20;99.90;;;;;;5076332;28;20176;-83
2022/06/25 05:00:43;;;;;;;6.28;2.60;;;20.20;99.90;;;;;;5075952;28;20689;-83
2022/06/25 05:03:09;;;;;;;7.10;2.38;;;20.40;99.90;;;;;;5076852;28;20184;-85
2022/06/25 05:05:36;;;;;;;7.43;2.70;;;20.60;99.90;;;;;;5075919;28;20195;-84
2022/06/25 05:08:01;;;;;;;6.18;2.60;;;20.40;99.90;;;;;;5075467;28;20169;-84
2022/06/25 05:10:27;;;;;;;7.05;2.75;;;20.40;99.90;;;;;;5075976;28;20177;-84
2022/06/25 05:15:37;;;;;;;8.23;2.47;;;20.30;99.90;;;;;;5076426;28;20683;-84
2022/06/25 05:18:03;;;;;;;8.60;2.47;;;20.70;99.90;;;;;;5075809;28;20179;-83
2022/06/25 05:20:29;;;;;;;6.65;3.00;;;20.80;99.90;;;;;;5074328;28;20287;-83
2022/06/25 05:22:55;;;;;;;11.18;2.80;;;20.80;99.90;;;;;;5075274;28;20235;-83
2022/06/25 05:25:21;;;;;;;6.88;2.42;;;20.90;99.90;;;;;;5075253;28;20180;-83
2022/06/25 05:27:46;;;;;;;4.93;2.20;;;21.10;99.90;;;;;;5075578;28;20176;-84
2022/06/25 05:30:12;;;;;;;3.33;2.05;;;21.30;99.90;;;;;;5074960;28;20172;-83
2022/06/25 05:32:38;;;;;;;2.88;2.10;;;21.30;99.90;;;;;;5076073;28;20205;-84
2022/06/25 05:35:04;;;;;;;5.35;2.25;;;21.30;99.90;;;;;;5076318;28;20172;-83
2022/06/25 05:37:29;;;;;;;3.65;2.20;;;21.40;99.90;;;;;;5075609;28;20193;-83
2022/06/25 05:39:55;;;;;;;11.30;2.55;;;21.60;99.90;;;;;;5073396;28;20572;-83
2022/06/25 05:42:21;;;;;;;4.25;2.20;;;21.70;99.90;;;;;;5073994;28;20599;-84
2022/06/25 05:44:47;;;;;;;6.60;2.47;;;21.90;99.90;;;;;;5072706;28;20177;-84
2022/06/25 05:47:13;;;;;;;7.68;2.30;;;22.20;99.90;;;;;;5074420;28;20179;-83
2022/06/25 05:49:39;;;;;;;4.10;2.10;;;22.30;99.90;;;;;;5072728;28;20828;-84
2022/06/25 05:52:05;;;;;;;6.32;2.22;;;22.20;99.90;;;;;;5073430;28;20192;-84
2022/06/25 05:54:31;;;;;;;4.35;2.40;;;22.50;99.90;;;;;;5074080;28;20176;-83
2022/06/25 05:56:57;;;;;;;8.48;2.00;;;22.70;99.90;;;;;;5073109;28;20175;-83
2022/06/25 05:59:22;;;;;;;10.10;2.65;;;22.90;99.90;;;;;;5072460;28;20196;-84
2022/06/25 06:01:48;;;;;;;3.88;2.30;;;23.00;99.90;;;;;;5072550;28;20172;-84
2022/06/25 06:04:14;;;;;;;4.93;1.85;;;23.20;99.90;;;;;;5072917;28;20215;-83
2022/06/25 06:06:39;;;;;;;3.22;1.90;;;23.00;99.90;;;;;;5077587;28;20195;-85
2022/06/25 06:09:05;;;;;;;4.18;2.50;;;23.30;99.90;;;;;;5084307;28;20165;-84
2022/06/25 06:11:31;;;;;;;5.63;1.92;;;23.20;99.90;;;;;;5083518;28;20183;-84
2022/06/25 06:13:56;;;;;;;4.57;2.20;;;23.70;99.90;;;;;;5084399;28;20188;-85
2022/06/25 06:16:22;;;;;;;3.20;2.03;;;23.70;99.90;;;;;;5084313;28;20177;-85
2022/06/25 06:18:47;;;;;;;6.15;2.20;;;23.80;99.90;;;;;;5083926;28;20204;-85
2022/06/25 06:21:13;;;;;;;3.92;2.08;;;23.90;99.90;;;;;;5084950;28;20161;-83
2022/06/25 06:23:39;;;;;;;6.53;2.42;;;24.30;99.90;;;;;;5082755;28;20200;-83
2022/06/25 06:26:04;;;;;;;3.40;2.03;;;24.00;99.90;;;;;;5082161;28;20291;-82
2022/06/25 06:28:30;;;;;;;4.97;2.20;;;23.80;99.90;;;;;;5082480;28;20191;-82
2022/06/25 06:30:56;;;;;;;5.90;2.05;;;24.30;99.90;;;;;;5080811;28;20164;-82
2022/06/25 06:33:21;;;;;;;4.53;2.72;;;24.50;99.90;;;;;;5079909;28;20188;-82
2022/06/25 06:35:47;;;;;;;2.58;1.90;;;24.50;99.90;;;;;;5079581;28;20184;-82
2022/06/25 06:38:12;;;;;;;5.97;2.17;;;24.50;99.90;;;;;;5080587;28;20184;-82
2022/06/25 06:40:38;;;;;;;5.10;1.80;;;24.80;99.90;;;;;;5081373;28;20900;-82
2022/06/25 06:43:04;;;;;;;3.83;2.03;;;25.10;99.90;;;;;;5082486;28;20271;-87
2022/06/25 06:45:29;;;;;;;8.55;2.30;;;24.40;99.90;;;;;;5078592;28;20161;-88
2022/06/25 06:47:55;;;;;;;6.30;2.20;;;24.70;99.90;;;;;;5084969;28;20259;-88
2022/06/25 06:50:20;;;;;;;4.13;2.25;;;24.70;99.90;;;;;;5086882;28;20310;-86
2022/06/25 06:52:46;;;;;;;5.22;2.00;;;25.30;99.90;;;;;;5087071;28;20260;-83
2022/06/25 06:55:12;;;;;;;2.35;1.80;;;25.60;99.90;;;;;;5081103;28;20180;-84
2022/06/25 06:57:37;;;;;;;4.35;1.73;;;25.40;99.90;;;;;;5081884;28;20199;-83
2022/06/25 07:00:06;;;;;;;3.30;2.25;;;25.20;99.90;;;;;;5081537;28;20216;-84
2022/06/25 07:02:32;;;;;;;4.85;1.95;;;25.10;99.90;;;;;;5080668;28;20202;-84
2022/06/25 07:04:58;;;;;;;3.35;1.70;;;25.10;99.90;;;;;;5082138;28;20176;-83
2022/06/25 07:07:24;;;;;;;4.38;2.10;;;25.30;99.90;;;;;;5081404;28;20173;-83
2022/06/25 07:09:49;;;;;;;2.33;1.80;;;25.30;99.90;;;;;;5081394;28;20179;-84
2022/06/25 07:12:16;;;;;;;3.25;2.42;;;26.00;99.90;;;;;;5080073;28;20239;-83
2022/06/25 07:14:41;;;;;;;4.07;1.83;;;25.70;99.90;;;;;;5080893;28;20181;-83
2022/06/25 07:17:07;;;;;;;5.07;1.80;;;26.80;99.90;;;;;;5079696;28;20276;-83
2022/06/25 07:19:32;;;;;;;5.95;1.67;;;26.50;99.90;;;;;;5080137;28;20230;-83
2022/06/25 07:21:58;;;;;;;3.70;1.90;;;26.40;99.90;;;;;;5078944;28;20193;-83
2022/06/25 07:24:24;;;;;;;7.68;2.03;;;25.90;99.90;;;;;;5080415;28;20177;-82
2022/06/25 07:26:50;;;;;;;3.10;2.17;;;26.10;99.90;;;;;;5079216;28;20176;-81
2022/06/25 07:29:16;;;;;;;1.90;1.80;;;26.40;99.90;;;;;;5080788;28;20176;-85
2022/06/25 07:31:42;;;;;;;4.80;1.90;;;26.10;99.90;;;;;;5081767;28;20211;-84
2022/06/25 07:34:08;;;;;;;2.17;1.80;;;26.50;99.90;;;;;;5080494;28;20180;-84
2022/06/25 07:36:34;;;;;;;5.35;1.80;;;26.80;99.90;;;;;;5081083;28;20211;-84
2022/06/25 07:39:03;;;;;;;4.13;1.50;;;27.00;99.90;;;;;;5080630;28;20216;-85
2022/06/25 07:41:30;;;;;;;3.15;1.70;;;27.10;99.80;;;;;;5079497;28;20173;-84
2022/06/25 07:43:56;;;;;;;4.30;1.80;;;27.00;99.90;;;;;;5079970;28;20199;-84
2022/06/25 07:46:21;;;;;;;3.30;1.80;;;26.90;99.90;;;;;;5079425;28;20173;-85
2022/06/25 07:48:47;;;;;;;3.75;1.90;;;27.20;99.70;;;;;;5080943;28;20264;-84
2022/06/25 07:53:57;;;;;;;3.25;1.90;;;27.20;98.00;;;;;;5082024;28;20262;-84
2022/06/25 07:56:23;;;;;;;6.82;1.70;;;27.00;99.20;;;;;;5079960;28;20169;-83
2022/06/25 07:58:49;;;;;;;5.40;1.70;;;27.10;97.70;;;;;;5079644;28;20211;-84
2022/06/25 08:01:15;;;;;;;7.28;1.75;;;26.70;99.10;;;;;;5080240;28;20204;-84
2022/06/25 08:03:40;;;;;;;3.58;1.67;;;26.60;98.70;;;;;;5079766;28;20188;-84
2022/06/25 08:06:06;;;;;;;5.97;1.60;;;26.90;98.20;;;;;;5079131;28;20171;-83
2022/06/25 08:08:32;;;;;;;2.92;1.50;;;27.40;97.60;;;;;;5074145;28;20203;-83
2022/06/25 08:10:58;;;;;;;5.65;1.75;;;27.00;97.80;;;;;;5075992;28;20176;-83
2022/06/25 08:13:24;;;;;;;2.53;1.70;;;27.30;97.60;;;;;;5078290;28;20219;-83
2022/06/25 08:15:50;;;;;;;4.15;1.88;;;27.50;98.60;;;;;;5077454;28;20184;-83
2022/06/25 08:18:17;;;;;;;1.98;1.70;;;27.70;97.40;;;;;;5079072;28;20176;-83
2022/06/25 08:20:43;;;;;;;5.82;1.50;;;27.20;97.60;;;;;;5077342;28;20209;-83
2022/06/25 08:23:08;;;;;;;5.28;1.90;;;26.90;97.20;;;;;;5076333;28;20284;-83
2022/06/25 08:25:34;;;;;;;2.35;1.88;;;27.40;96.60;;;;;;5076626;28;20561;-83
2022/06/25 08:28:00;;;;;;;5.55;1.80;;;27.60;96.20;;;;;;5076340;28;20173;-82
2022/06/25 08:30:26;;;;;;;3.88;1.65;;;28.10;96.30;;;;;;5075008;28;20211;-83
2022/06/25 08:32:53;;;;;;;3.83;1.70;;;28.00;96.30;;;;;;5076460;28;20199;-82
2022/06/25 08:35:18;;;;;;;4.32;1.60;;;28.20;96.40;;;;;;5077752;28;20177;-83
2022/06/25 08:37:46;;;;;;;2.70;1.77;;;28.00;96.40;;;;;;5078201;28;20192;-84
2022/06/25 08:40:12;;;;;;;2.80;1.85;;;28.40;95.20;;;;;;5078580;28;20216;-83
2022/06/25 08:42:38;;;;;;;4.35;2.00;;;28.20;95.90;;;;;;5078500;28;20657;-82
2022/06/25 08:45:04;;;;;;;3.10;1.85;;;27.80;95.40;;;;;;5077499;28;20176;-82
2022/06/25 08:47:30;;;;;;;4.03;1.95;;;27.50;95.70;;;;;;5078372;28;20175;-81
2022/06/25 08:49:55;;;;;;;4.68;1.50;;;27.40;97.00;;;;;;5077178;28;20173;-82
2022/06/25 08:52:22;;;;;;;7.82;1.90;;;28.70;95.20;;;;;;5077449;28;20192;-82
2022/06/25 08:54:48;;;;;;;2.22;1.80;;;27.90;94.80;;;;;;5077488;28;20666;-81
2022/06/25 08:57:14;;;;;;;2.67;1.60;;;28.00;94.60;;;;;;5077556;28;20180;-82
2022/06/25 08:59:41;;;;;;;3.83;1.90;;;28.40;94.70;;;;;;5077528;28;20208;-82
2022/06/25 09:02:06;;;;;;;3.72;1.80;;;28.30;94.70;;;;;;5077633;28;20261;-81
2022/06/25 09:04:32;;;;;;;3.78;1.98;;;28.30;94.00;;;;;;5078401;28;20169;-82
2022/06/25 09:07:20;;;;;;;3.45;1.55;;;28.40;93.70;;;;;;5077564;28;20176;-82
2022/06/25 09:09:49;;;;;;;3.20;1.92;;;28.80;92.70;;;;;;5077799;28;20302;-81
2022/06/25 09:12:15;;;;;;;2.75;2.10;;;28.10;94.30;;;;;;5076615;28;20193;-81
2022/06/25 09:14:41;;;;;;;1.77;1.63;;;27.50;94.00;;;;;;5076546;28;20172;-80
2022/06/25 09:17:10;;;;;;;4.00;2.10;;;27.40;94.70;;;;;;5077372;28;20183;-81
2022/06/25 09:19:47;;;;;;;3.03;1.60;;;27.30;93.50;;;;;;5076692;28;20200;-80
2022/06/25 09:22:15;;;;;;;5.00;1.90;;;27.30;94.20;;;;;;5076332;28;20192;-81
2022/06/25 09:24:44;;;;;;;2.97;1.83;;;27.40;93.40;;;;;;5076529;28;20230;-81
2022/06/25 09:27:10;;;;;;;2.40;1.60;;;27.80;93.20;;;;;;5076385;28;20176;-80
2022/06/25 09:29:49;;;;;;;2.35;1.50;;;28.00;93.90;;;;;;5076718;28;20191;-81
2022/06/25 09:32:16;;;;;;;2.83;1.70;;;28.00;92.90;;;;;;5076897;28;20192;-81
2022/06/25 09:34:42;;;;;;;6.68;2.30;;;28.80;93.10;;;;;;5077775;28;20184;-81
2022/06/25 09:37:20;;;;;;;3.40;1.80;;;28.60;92.90;;;;;;5076507;28;20188;-80
2022/06/25 09:39:46;;;;;;;4.40;2.03;;;28.90;93.00;;;;;;5077083;28;20282;-81
2022/06/25 09:42:32;;;;;;;7.05;2.10;;;28.00;92.90;;;;;;5076464;28;20223;-81
2022/06/25 09:45:05;;;;;;;4.63;2.30;;;27.70;94.40;;;;;;5076249;28;20200;-82
2022/06/25 09:47:35;;;;;;;5.25;1.92;;;27.60;93.50;;;;;;5076645;28;20326;-81
2022/06/25 09:50:16;;;;;;;6.05;2.10;;;28.00;93.90;;;;;;5075198;28;20720;-81
2022/06/25 09:52:56;;;;;;;4.72;1.90;;;27.70;93.40;;;;;;5068342;23;20316;-85
2022/06/25 09:55:24;;;;;;;2.47;2.28;;;27.50;92.90;;;;;;5031015;28;20220;-88
2022/06/25 09:57:51;;;;;;;2.67;1.90;;;28.10;92.10;;;;;;5029581;28;20292;-86
2022/06/25 10:00:22;;;;;;;2.80;1.65;;;28.20;92.40;;;;;;5030673;28;20695;-86
2022/06/25 10:02:49;;;;;;;4.15;2.08;;;27.60;92.50;;;;;;5029502;28;20284;-87
2022/06/25 10:05:25;;;;;;;6.63;1.92;;;27.30;92.60;;;;;;5030169;28;20169;-86
2022/06/25 10:08:01;;;;;;;2.85;1.80;;;26.70;93.70;;;;;;5030185;28;20189;-86
2022/06/25 10:10:31;;;;;;;6.78;2.15;;;27.80;93.10;;;;;;5029841;28;20531;-87
2022/06/25 10:12:56;;;;;;;1.85;1.70;;;27.90;92.70;;;;;;5029891;28;20231;-87
2022/06/25 10:15:23;;;;;;;3.13;1.90;;;27.10;92.50;;;;;;5029415;28;20174;-86
2022/06/25 10:17:53;;;;;;;5.25;1.83;;;27.40;92.40;;;;;;5028611;28;20205;-86
2022/06/25 10:20:21;;;;;;;4.20;2.10;;;27.50;91.90;;;;;;5027049;28;20206;-87
2022/06/25 10:22:51;;;;;;;5.38;2.00;;;28.20;91.60;;;;;;5026920;28;20189;-87
2022/06/25 10:25:22;;;;;;;4.20;1.83;;;28.60;92.20;;;;;;5028621;28;20169;-87
2022/06/25 10:27:50;;;;;;;7.05;1.80;;;28.90;90.80;;;;;;5028392;28;20190;-86
2022/06/25 10:30:54;;;;;;;5.53;1.75;;;28.80;92.30;;;;;;5027082;28;20660;-86
2022/06/25 10:33:35;;;;;;;5.35;1.65;;;29.20;91.00;;;;;;5027460;28;20182;-86
2022/06/25 10:36:04;;;;;;;1.83;1.60;;;28.80;90.00;;;;;;5019040;28;20258;-87
2022/06/25 10:38:30;;;;;;;2.45;1.58;;;28.50;90.30;;;;;;5023554;28;20570;-87
2022/06/25 10:40:56;;;;;;;1.83;1.50;;;28.20;90.90;;;;;;5026122;28;20170;-90
2022/06/25 10:43:39;;;;;;;3.72;1.88;;;28.60;90.90;;;;;;5020717;28;20517;-89
2022/06/25 10:46:21;;;;;;;5.78;1.90;;;28.50;91.80;;;;;;5010450;28;20179;-89
2022/06/25 10:48:58;;;;;;;4.53;1.75;;;28.40;90.90;;;;;;5013346;28;20190;-90
2022/06/25 10:51:41;;;;;;;5.45;1.70;;;28.20;90.80;;;;;;5012391;28;20178;-91
2022/06/25 10:54:12;;;;;;;3.25;1.50;;;28.00;89.10;;;;;;5035898;28;20534;-89
2022/06/25 10:56:49;;;;;;;5.35;1.55;;;28.40;88.80;;;;;;5034348;28;20540;-90
2022/06/25 10:59:41;;;;;;;2.75;1.50;;;28.90;89.50;;;;;;5035078;28;20592;-90
2022/06/25 11:02:09;;;;;;;2.33;1.60;;;28.80;89.10;;;;;;5036434;28;20189;-90
2022/06/25 11:04:35;;;;;;;3.42;1.70;;;28.60;90.00;;;;;;5031713;28;20539;-90
2022/06/25 11:07:13;;;;;;;3.38;1.50;;;28.80;90.00;;;;;;5028181;28;20253;-89
2022/06/25 11:09:40;;;;;;;2.80;1.55;;;29.30;90.70;;;;;;5021192;28;20655;-89
2022/06/25 11:12:07;;;;;;;6.05;1.60;;;28.90;88.60;;;;;;5025896;28;20293;-89
2022/06/25 11:14:33;;;;;;;6.47;1.60;;;29.20;87.00;;;;;;5035285;28;20178;-90
2022/06/25 11:17:08;;;;;;;3.75;1.63;;;29.70;88.50;;;;;;5034695;28;20177;-90
2022/06/25 11:19:34;;;;;;;5.50;1.40;;;29.60;87.50;;;;;;5032930;28;20197;-89
2022/06/25 11:22:03;;;;;;;4.80;1.50;;;30.40;87.70;;;;;;5032737;28;20228;-89
2022/06/25 11:24:29;;;;;;;7.28;1.50;;;29.90;89.90;;;;;;5036083;28;20845;-90
2022/06/25 11:29:53;;;;;;;4.70;1.60;;;31.10;86.50;;;;;;5034878;28;20188;-89
2022/06/25 11:32:24;;;;;;;8.55;1.75;;;30.40;86.10;;;;;;5034672;28;20252;-90
2022/06/25 11:34:51;;;;;;;1.77;1.50;;;30.30;86.70;;;;;;5035471;28;20195;-89
2022/06/25 11:37:18;;;;;;;3.60;1.80;;;29.10;87.10;;;;;;5038864;28;20182;-89
2022/06/25 11:39:45;;;;;;;3.65;1.70;;;28.90;87.40;;;;;;5037250;28;20206;-89
2022/06/25 11:42:11;;;;;;;7.55;1.85;;;29.70;88.50;;;;;;5033912;28;20193;-89
2022/06/25 11:44:39;;;;;;;2.22;1.60;;;30.30;87.00;;;;;;5033593;28;20170;-89
2022/06/25 11:47:05;;;;;;;3.75;1.60;;;29.70;85.50;;;;;;5034673;28;20553;-90
2022/06/25 11:49:42;;;;;;;5.30;1.58;;;29.10;85.80;;;;;;5031603;28;20171;-90
2022/06/25 11:52:09;;;;;;;3.00;1.50;;;29.10;84.80;;;;;;5033120;28;20237;-91
2022/06/25 11:54:36;;;;;;;2.92;1.60;;;29.40;86.60;;;;;;5032354;28;20654;-88
2022/06/25 11:57:04;;;;;;;1.90;1.40;;;29.50;84.60;;;;;;5034044;28;20178;-89
2022/06/25 11:59:32;;;;;;;3.05;1.80;;;29.20;85.70;;;;;;5032433;28;20194;-88
2022/06/25 12:02:03;;;;;;;2.05;1.45;;;28.90;83.40;;;;;;5031951;28;20556;-89
2022/06/25 12:04:31;;;;;;;4.25;1.60;;;29.00;84.80;;;;;;5032566;28;20611;-88
2022/06/25 12:06:57;;;;;;;2.70;1.40;;;29.00;83.30;;;;;;5032477;28;20549;-89
2022/06/25 12:09:23;;;;;;;3.78;1.60;;;28.60;83.50;;;;;;5033400;28;20197;-88
2022/06/25 12:11:52;;;;;;;3.70;1.38;;;29.20;83.80;;;;;;5031639;28;20221;-89
2022/06/25 12:14:28;;;;;;;2.67;1.52;;;29.00;83.10;;;;;;5032557;28;20648;-88
2022/06/25 12:16:54;;;;;;;5.78;1.35;;;28.80;81.30;;;;;;5032064;28;20760;-88
2022/06/25 12:19:20;;;;;;;2.17;1.30;;;28.50;82.00;;;;;;5032038;28;20213;-88
2022/06/25 12:21:46;;;;;;;4.20;1.20;;;28.50;82.10;;;;;;5032859;28;20162;-88
2022/06/25 12:24:15;;;;;;;3.08;1.30;;;28.70;82.20;;;;;;5031695;28;20316;-89
2022/06/25 12:26:43;;;;;;;2.45;1.52;;;28.80;84.30;;;;;;5031933;28;20666;-88
2022/06/25 12:29:13;;;;;;;4.63;1.45;;;28.60;82.40;;;;;;5033223;28;20201;-88
2022/06/25 12:31:41;;;;;;;5.18;1.40;;;28.80;82.40;;;;;;5031616;28;20257;-87
2022/06/25 12:34:07;;;;;;;1.50;1.33;;;29.00;82.40;;;;;;5032220;28;20592;-88
2022/06/25 12:36:38;;;;;;;3.08;1.30;;;28.60;80.20;;;;;;5029218;28;20174;-89
2022/06/25 12:39:36;;;;;;;3.67;1.50;;;28.50;82.20;;;;;;5033001;28;20681;-88
2022/06/25 12:42:12;;;;;;;2.30;1.40;;;28.10;81.60;;;;;;5031461;28;20185;-88
2022/06/25 12:44:39;;;;;;;1.73;1.60;;;28.70;81.60;;;;;;5029045;28;20204;-88
2022/06/25 12:47:08;;;;;;;4.90;1.35;;;28.40;83.10;;;;;;5033083;28;20170;-89
2022/06/25 12:49:44;;;;;;;2.15;1.48;;;28.30;82.80;;;;;;5029405;28;20232;-89
2022/06/25 12:52:11;;;;;;;1.85;1.35;;;28.50;82.70;;;;;;5032487;28;20189;-88
2022/06/25 12:54:58;;;;;;;4.85;1.50;;;27.60;82.40;;;;;;5033072;28;20165;-89
2022/06/25 12:57:29;;;;;;;1.35;1.10;;;27.70;83.70;;;;;;5031715;28;20852;-89
2022/06/25 12:59:56;;;;;;;3.00;1.58;;;28.10;84.10;;;;;;5031651;28;20362;-89
2022/06/25 13:02:23;;;;;;;3.47;1.48;;;28.70;83.30;;;;;;5029113;28;20221;-89
2022/06/25 13:04:50;;;;;;;1.98;1.30;;;28.10;83.50;;;;;;5032682;28;20716;-88
2022/06/25 13:07:17;;;;;;;4.55;1.55;;;28.00;83.20;;;;;;5033165;28;20169;-89
2022/06/25 13:09:44;;;;;;;2.65;1.60;;;28.20;82.70;;;;;;5031422;28;20173;-89